EGCC/MAN METAR and TAF weather

Enter ICAO airport designator
Station Type Date Time Source
EGCC METAR 2018/07/21 12:50 UTC NOAA

EGCC 211250Z AUTO 30008KT 9999 OVC029 19/14 Q1015 NOSIG


Station Type Date Time Source
EGCC Decoded METAR 2018/07/21 12:50 UTC NOAA

Manchester Airport, United Kingdom (EGCC) 53-21N 002-17W 0M
Jul 21, 2018 - 08:50 AM EDT / 2018.07.21 1250 UTC
Wind: from the WNW (300 degrees) at 9 MPH (8 KT):0
Visibility: greater than 7 mile(s):0
Sky conditions: overcast
Temperature: 66 F (19 C)
Dew Point: 57 F (14 C)
Relative Humidity: 72%
Pressure (altimeter): 29.97 in. Hg (1015 hPa)
ob: EGCC 211250Z AUTO 30008KT 9999 OVC029 19/14 Q1015 NOSIG
cycle: 13

Station Type Date Time Source
EGCC TAF 2018/07/21 12:15 UTC NOAA

TAF EGCC 211100Z 2112/2218 28008KT 9999 SCT025 PROB30
TEMPO 2112/2115 BKN012 PROB30
TEMPO 2200/2206 8000


Example: see airport list